MMPN

Licenciado y General Ignacio Lopez Rayon Airport

Mexico
TAF MMPN 200445Z 2006/2106 00000KT 6SM HZ SCT020 TEMPO 2006/2010 5SM -RA BKN020 FM201800 18010KT 6SM HZ BKN020CB BKN250 FM210500 00000KT 6SM HZ SCT020 SCT250
Issued Valid From Valid To
Jul-20 @ 04:45 UTC
(10 hours ago)
Jul-20 @ 06:00 UTC
(9 hours ago)
Jul-21 @ 06:00 UTC
(in 15 hours)
Jul-20 @ 06:00 to Jul-20 @ 18:00
TAF MMPN 200445Z 2006/2106 00000KT 6SM HZ SCT020
Visibility Clouds Conditions
6 miles
  • Scattered at 2,000' AGL
  • Haze
Expired Click to View Jul-20 @ 06:00 to Jul-20 @ 10:00
TEMPO 2006/2010 5SM -RA BKN020
Visibility Clouds Conditions
5 miles
  • Broken at 2,000' AGL
  • Light Rain
From Jul-20 @ 18:00 to Jul-21 @ 05:00
FM201800 18010KT 6SM HZ BKN020CB BKN250
Wind Visibility Clouds Conditions
180° at 10 knots 6 miles
  • Broken at 2,000' AGL
  • Broken at 25,000' AGL
  • Haze
From Jul-21 @ 05:00 to Jul-21 @ 06:00
FM210500 00000KT 6SM HZ SCT020 SCT250
Visibility Clouds Conditions
6 miles
  • Scattered at 2,000' AGL
  • Scattered at 25,000' AGL
  • Haze
TAF MMPN 200445Z 2006/2106 00000KT 6SM HZ SCT020 TEMPO 2006/2010 5SM -RA BKN020 FM201800 18010KT 6SM HZ BKN020CB BKN250 FM210500 00000KT 6SM HZ SCT020 SCT250
Issued Jul-20 @ 04:45 UTC
(10 hours ago)
Valid From Jul-20 @ 06:00 UTC
(9 hours ago)
Valid To Jul-21 @ 06:00 UTC
(in 15 hours)
Jul-20 @ 06:00 - Jul-20 @ 18:00
Clouds
  • Scattered at 2,000' AGL
Conditions
  • Haze
Jul-20 @ 06:00 - Jul-20 @ 10:00
Clouds
  • Broken at 2,000' AGL
Conditions
  • Light Rain
From Jul-20 @ 18:00 - Jul-21 @ 05:00
Wind Visibility
180° at 10 knots 6 miles
Clouds
  • Broken at 2,000' AGL
  • Broken at 25,000' AGL
Conditions
  • Haze
From Jul-21 @ 05:00 - Jul-21 @ 06:00
Clouds
  • Scattered at 2,000' AGL
  • Scattered at 25,000' AGL
Conditions
  • Haze